Wetterdaten: November 2010
Datum Temp. A. Feuchte A. Luftdruck Regen Wind Richtung Taupunkt Windchill Windben
01.11.2010 9,5 C 78 % 1008,5 hPa 0,0 l/m 0,0 km/h NO 5,6 C 9,5 C 0,0 km/h
02.11.2010 8,4 C 81 % 1016,6 hPa 0,0 l/m 0,6 km/h SO 5,1 C 8,4 C 0,3 km/h
03.11.2010 12,8 C 80 % 1020,0 hPa 0,0 l/m 16,2 km/h W-SW 9,4 C 8,5 C 9,0 km/h
04.11.2010 14,9 C 81 % 1026,4 hPa 0,0 l/m 17,8 km/h SW 11,5 C 10,9 C 9,9 km/h
05.11.2010 14,9 C 79 % 1024,6 hPa 0,0 l/m 14,6 km/h SW 11,1 C 13,0 C 8,1 km/h
06.11.2010 13,3 C 73 % 1013,1 hPa 0,0 l/m 20,3 km/h SW 8,6 C 7,5 C 11,3 km/h
07.11.2010 6,5 C 86 % 999,3 hPa 14,6 l/m 6,5 km/h W 4,3 C 4,1 C 3,6 km/h
08.11.2010 8,0 C 71 % 981,5 hPa 0,0 l/m 21,7 km/h S-SW 2,8 C 0,2 C 12,1 km/h
09.11.2010 10,3 C 70 % 979,5 hPa 0,0 l/m 6,5 km/h S-SO 4,7 C 8,8 C 3,6 km/h
10.11.2010 7,3 C 85 % 996,0 hPa 1,8 l/m 5,5 km/h SW 4,9 C 5,3 C 3,0 km/h
11.11.2010 8,2 C 78 % 1004,8 hPa 1,8 l/m 25,4 km/h SW 4,5 C 1,2 C 14,1 km/h
12.11.2010 13,2 C 76 % 1004,9 hPa 0,7 l/m 30,3 km/h W-SW 9,0 C 6,4 C 16,8 km/h
13.11.2010 13,9 C 71 % 1003,6 hPa 0,0 l/m 10,5 km/h W-SW 8,7 C 11,8 C 5,9 km/h
14.11.2010 14,8 C 66 % 1003,2 hPa 0,0 l/m 17,8 km/h O-SO 8,0 C 11,1 C 9,9 km/h
15.11.2010 7,3 C 86 % 1011,6 hPa 10,7 l/m 0,6 km/h N-NO 5,0 C 7,3 C 0,3 km/h
16.11.2010 5,5 C 87 % 1016,0 hPa 3,2 l/m 0,0 km/h N-NO 3,5 C 5,5 C 0,0 km/h
17.11.2010 4,7 C 85 % 1006,9 hPa 0,0 l/m 0,0 km/h O-NO 2,4 C 4,7 C 0,0 km/h
18.11.2010 4,5 C 87 % 1009,9 hPa 0,0 l/m 2,6 km/h N-NO 2,4 C 3,7 C 1,5 km/h
19.11.2010 5,2 C 84 % 1014,6 hPa 0,4 l/m 3,9 km/h SO 2,6 C 4,7 C 2,2 km/h
20.11.2010 4,0 C 84 % 1009,8 hPa 0,0 l/m 0,0 km/h W-NW 1,5 C 4,0 C 0,0 km/h
21.11.2010 3,8 C 86 % 1002,3 hPa 0,0 l/m 0,0 km/h W-NW 1,6 C 3,8 C 0,0 km/h
22.11.2010 3,8 C 87 % 1000,0 hPa 2,1 l/m 0,0 km/h S-SO 1,9 C 3,8 C 0,0 km/h
23.11.2010 2,6 C 87 % 1005,3 hPa 4,3 l/m 0,0 km/h S-SO 0,6 C 2,6 C 0,0 km/h
24.11.2010 3,3 C 87 % 1007,7 hPa 0,7 l/m 19,8 km/h SW 1,3 C -5,1 C 11,0 km/h
25.11.2010 2,7 C 82 % 1000,0 hPa 2,1 l/m 7,3 km/h SW -0,2 C -0,2 C 4,1 km/h
26.11.2010 0,1 C 88 % 1003,9 hPa 0,7 l/m 4,7 km/h NW -1,7 C -1,6 C 2,6 km/h
27.11.2010 -1,7 C 86 % 1002,1 hPa 0,4 l/m 0,0 km/h SO -3,8 C -1,7 C 0,0 km/h
28.11.2010 -1,4 C 88 % 999,9 hPa 0,0 l/m 0,0 km/h O -3,2 C -1,4 C 0,0 km/h
29.11.2010 -0,6 C 87 % 1006,1 hPa 0,0 l/m 6,0 km/h O -2,5 C -3,3 C 3,3 km/h
30.11.2010 -4,8 C 88 % 1003,7 hPa 0,0 l/m 0,0 km/h SO -6,4 C -4,8 C 0,0 km/h
Min-Datum 30.11.10 14.11.10 09.11.10 13 Tage 01.11.10 - 30.11.10 29.11.10 01.11.10
Min-Zeit 08:30 15:30 03:30 - 00:30 - 08:30 15:30 00:30
Minimum -7,9 C 46 % 976,6 hPa - 0,0 km/h - -9,4 C -12,6 C 0,0 km/h
Max-Datum 14.11.10 23.11.10 04.11.10 07.11.10 13.11.10 - 04.11.10 14.11.10 13.11.10
Max-Zeit 15:30 15:30 21:30 07:30 04:30 - 12:30 15:30 04:30
Maximum 21,6 C 89 % 1027,1 hPa 14,6 l/m 61,6 km/h
W-SW
- 13,0 C 20,9 C 34,2 km/h
W-SW
Durchschnitt 6,5 C 82 % 1006,0 hPa #43,4 l/m 8,0 km/h SW 3,4 C 4,3 C 4,4 km/h

Durchschnitt Minimum Temp.3,5 C
Durchschnitt Maximum Temp.10,6 C